sensor_id;sensor_type;location;lat;lon;timestamp;P1;durP1;ratioP1;P2;durP2;ratioP2
13592;SDS011;6867;50.998;4.250;2023-08-31T00:01:32;8.73;;;2.90;;
13592;SDS011;6867;50.998;4.250;2023-08-31T00:03:59;3.83;;;2.87;;
13592;SDS011;6867;50.998;4.250;2023-08-31T00:06:25;4.93;;;2.93;;
13592;SDS011;6867;50.998;4.250;2023-08-31T00:08:52;5.33;;;3.07;;
13592;SDS011;6867;50.998;4.250;2023-08-31T00:11:19;4.10;;;3.20;;
13592;SDS011;6867;50.998;4.250;2023-08-31T00:13:46;4.43;;;3.10;;
13592;SDS011;6867;50.998;4.250;2023-08-31T00:16:12;3.50;;;2.80;;
13592;SDS011;6867;50.998;4.250;2023-08-31T00:18:40;5.27;;;2.80;;
13592;SDS011;6867;50.998;4.250;2023-08-31T00:21:07;3.80;;;3.10;;
13592;SDS011;6867;50.998;4.250;2023-08-31T00:23:34;5.37;;;3.43;;
13592;SDS011;6867;50.998;4.250;2023-08-31T00:26:01;3.47;;;2.80;;
13592;SDS011;6867;50.998;4.250;2023-08-31T00:28:28;3.93;;;3.23;;
13592;SDS011;6867;50.998;4.250;2023-08-31T00:30:55;4.30;;;3.20;;
13592;SDS011;6867;50.998;4.250;2023-08-31T00:33:22;4.03;;;3.13;;
13592;SDS011;6867;50.998;4.250;2023-08-31T00:35:53;6.00;;;3.60;;
13592;SDS011;6867;50.998;4.250;2023-08-31T00:38:21;4.97;;;2.90;;
13592;SDS011;6867;50.998;4.250;2023-08-31T00:40:47;7.57;;;3.73;;
13592;SDS011;6867;50.998;4.250;2023-08-31T00:43:15;4.33;;;3.10;;
13592;SDS011;6867;50.998;4.250;2023-08-31T00:45:43;5.13;;;3.67;;
13592;SDS011;6867;50.998;4.250;2023-08-31T00:48:11;3.93;;;3.20;;
13592;SDS011;6867;50.998;4.250;2023-08-31T00:50:41;6.50;;;4.10;;
13592;SDS011;6867;50.998;4.250;2023-08-31T00:53:10;5.70;;;4.03;;
13592;SDS011;6867;50.998;4.250;2023-08-31T00:55:36;6.63;;;4.10;;
13592;SDS011;6867;50.998;4.250;2023-08-31T00:58:04;10.03;;;4.30;;
13592;SDS011;6867;50.998;4.250;2023-08-31T01:00:32;4.70;;;3.67;;
13592;SDS011;6867;50.998;4.250;2023-08-31T01:03:09;5.90;;;3.93;;
13592;SDS011;6867;50.998;4.250;2023-08-31T01:05:41;5.37;;;4.13;;
13592;SDS011;6867;50.998;4.250;2023-08-31T01:08:21;7.60;;;4.20;;
13592;SDS011;6867;50.998;4.250;2023-08-31T01:10:58;5.20;;;3.80;;
13592;SDS011;6867;50.998;4.250;2023-08-31T01:13:33;4.90;;;4.10;;
13592;SDS011;6867;50.998;4.250;2023-08-31T01:16:03;6.73;;;5.07;;
13592;SDS011;6867;50.998;4.250;2023-08-31T01:18:32;8.00;;;5.10;;
13592;SDS011;6867;50.998;4.250;2023-08-31T01:21:05;7.60;;;4.70;;
13592;SDS011;6867;50.998;4.250;2023-08-31T01:23:53;7.63;;;4.50;;
13592;SDS011;6867;50.998;4.250;2023-08-31T01:26:21;6.53;;;4.87;;
13592;SDS011;6867;50.998;4.250;2023-08-31T01:28:48;6.80;;;5.10;;
13592;SDS011;6867;50.998;4.250;2023-08-31T01:31:16;7.37;;;5.10;;
13592;SDS011;6867;50.998;4.250;2023-08-31T01:33:43;9.37;;;4.93;;
13592;SDS011;6867;50.998;4.250;2023-08-31T01:36:12;6.57;;;5.60;;
13592;SDS011;6867;50.998;4.250;2023-08-31T01:38:45;8.93;;;5.50;;
13592;SDS011;6867;50.998;4.250;2023-08-31T01:41:18;6.10;;;5.10;;
13592;SDS011;6867;50.998;4.250;2023-08-31T01:43:48;9.30;;;4.93;;
13592;SDS011;6867;50.998;4.250;2023-08-31T01:46:17;8.07;;;5.23;;
13592;SDS011;6867;50.998;4.250;2023-08-31T01:48:45;6.70;;;5.40;;
13592;SDS011;6867;50.998;4.250;2023-08-31T01:51:12;6.73;;;5.33;;
13592;SDS011;6867;50.998;4.250;2023-08-31T01:53:38;8.60;;;5.90;;
13592;SDS011;6867;50.998;4.250;2023-08-31T01:56:05;7.90;;;5.60;;
13592;SDS011;6867;50.998;4.250;2023-08-31T01:58:33;10.77;;;6.37;;
13592;SDS011;6867;50.998;4.250;2023-08-31T02:01:00;7.97;;;6.13;;
13592;SDS011;6867;50.998;4.250;2023-08-31T02:03:26;10.77;;;6.13;;
13592;SDS011;6867;50.998;4.250;2023-08-31T02:05:53;8.87;;;6.40;;
13592;SDS011;6867;50.998;4.250;2023-08-31T02:08:20;7.43;;;5.97;;
13592;SDS011;6867;50.998;4.250;2023-08-31T02:10:47;7.73;;;5.90;;
13592;SDS011;6867;50.998;4.250;2023-08-31T02:13:14;8.80;;;5.77;;
13592;SDS011;6867;50.998;4.250;2023-08-31T02:15:42;11.13;;;6.10;;
13592;SDS011;6867;50.998;4.250;2023-08-31T02:18:09;14.53;;;6.87;;
13592;SDS011;6867;50.998;4.250;2023-08-31T02:20:36;10.93;;;6.87;;
13592;SDS011;6867;50.998;4.250;2023-08-31T02:23:03;10.57;;;6.27;;
13592;SDS011;6867;50.998;4.250;2023-08-31T02:25:30;9.93;;;6.70;;
13592;SDS011;6867;50.998;4.250;2023-08-31T02:27:57;10.77;;;6.53;;
13592;SDS011;6867;50.998;4.250;2023-08-31T02:30:24;12.43;;;6.27;;
13592;SDS011;6867;50.998;4.250;2023-08-31T02:32:52;10.60;;;6.33;;
13592;SDS011;6867;50.998;4.250;2023-08-31T02:35:18;8.27;;;6.27;;
13592;SDS011;6867;50.998;4.250;2023-08-31T02:37:45;12.03;;;6.53;;
13592;SDS011;6867;50.998;4.250;2023-08-31T02:40:12;11.37;;;6.00;;
13592;SDS011;6867;50.998;4.250;2023-08-31T02:42:40;10.23;;;7.30;;
13592;SDS011;6867;50.998;4.250;2023-08-31T02:45:07;8.87;;;6.23;;
13592;SDS011;6867;50.998;4.250;2023-08-31T02:47:34;9.87;;;6.07;;
13592;SDS011;6867;50.998;4.250;2023-08-31T02:50:03;10.90;;;7.00;;
13592;SDS011;6867;50.998;4.250;2023-08-31T02:52:30;8.53;;;5.80;;
13592;SDS011;6867;50.998;4.250;2023-08-31T02:54:56;10.77;;;6.87;;
13592;SDS011;6867;50.998;4.250;2023-08-31T02:57:23;10.30;;;6.43;;
13592;SDS011;6867;50.998;4.250;2023-08-31T02:59:50;10.93;;;7.40;;
13592;SDS011;6867;50.998;4.250;2023-08-31T03:02:17;10.40;;;6.90;;
13592;SDS011;6867;50.998;4.250;2023-08-31T03:04:43;9.03;;;6.57;;
13592;SDS011;6867;50.998;4.250;2023-08-31T03:07:11;9.73;;;6.63;;
13592;SDS011;6867;50.998;4.250;2023-08-31T03:09:40;12.43;;;6.87;;
13592;SDS011;6867;50.998;4.250;2023-08-31T03:12:07;10.47;;;7.33;;
13592;SDS011;6867;50.998;4.250;2023-08-31T03:14:33;12.60;;;7.53;;
13592;SDS011;6867;50.998;4.250;2023-08-31T03:17:00;13.10;;;7.90;;
13592;SDS011;6867;50.998;4.250;2023-08-31T03:19:27;14.77;;;8.50;;
13592;SDS011;6867;50.998;4.250;2023-08-31T03:21:53;17.23;;;8.73;;
13592;SDS011;6867;50.998;4.250;2023-08-31T03:24:21;13.40;;;9.00;;
13592;SDS011;6867;50.998;4.250;2023-08-31T03:26:48;14.97;;;9.33;;
13592;SDS011;6867;50.998;4.250;2023-08-31T03:29:15;14.73;;;8.37;;
13592;SDS011;6867;50.998;4.250;2023-08-31T03:31:41;18.60;;;10.17;;
13592;SDS011;6867;50.998;4.250;2023-08-31T03:34:08;18.07;;;9.47;;
13592;SDS011;6867;50.998;4.250;2023-08-31T03:36:35;15.97;;;9.83;;
13592;SDS011;6867;50.998;4.250;2023-08-31T03:39:02;17.93;;;9.73;;
13592;SDS011;6867;50.998;4.250;2023-08-31T03:41:31;16.97;;;9.63;;
13592;SDS011;6867;50.998;4.250;2023-08-31T03:43:57;12.80;;;9.33;;
13592;SDS011;6867;50.998;4.250;2023-08-31T03:46:24;17.73;;;10.37;;
13592;SDS011;6867;50.998;4.250;2023-08-31T03:48:51;14.57;;;9.40;;
13592;SDS011;6867;50.998;4.250;2023-08-31T03:51:18;18.27;;;9.87;;
13592;SDS011;6867;50.998;4.250;2023-08-31T03:53:45;14.33;;;9.33;;
13592;SDS011;6867;50.998;4.250;2023-08-31T03:56:11;16.47;;;9.37;;
13592;SDS011;6867;50.998;4.250;2023-08-31T03:58:39;20.23;;;9.77;;
13592;SDS011;6867;50.998;4.250;2023-08-31T04:01:06;16.63;;;9.47;;
13592;SDS011;6867;50.998;4.250;2023-08-31T04:03:35;14.00;;;9.27;;
13592;SDS011;6867;50.998;4.250;2023-08-31T04:06:02;15.83;;;8.90;;
13592;SDS011;6867;50.998;4.250;2023-08-31T04:08:30;17.13;;;9.30;;
13592;SDS011;6867;50.998;4.250;2023-08-31T04:10:56;16.07;;;9.27;;
13592;SDS011;6867;50.998;4.250;2023-08-31T04:13:23;14.07;;;8.70;;
13592;SDS011;6867;50.998;4.250;2023-08-31T04:15:51;13.80;;;8.47;;
13592;SDS011;6867;50.998;4.250;2023-08-31T04:18:19;13.20;;;8.60;;
13592;SDS011;6867;50.998;4.250;2023-08-31T04:20:47;11.37;;;8.03;;
13592;SDS011;6867;50.998;4.250;2023-08-31T04:23:16;12.97;;;8.80;;
13592;SDS011;6867;50.998;4.250;2023-08-31T04:25:42;13.57;;;8.67;;
13592;SDS011;6867;50.998;4.250;2023-08-31T04:28:09;14.00;;;8.67;;
13592;SDS011;6867;50.998;4.250;2023-08-31T04:30:36;13.03;;;8.27;;
13592;SDS011;6867;50.998;4.250;2023-08-31T04:33:04;16.10;;;8.77;;
13592;SDS011;6867;50.998;4.250;2023-08-31T04:35:32;17.10;;;8.67;;
13592;SDS011;6867;50.998;4.250;2023-08-31T04:37:59;14.93;;;8.00;;
13592;SDS011;6867;50.998;4.250;2023-08-31T04:40:27;11.03;;;7.77;;
13592;SDS011;6867;50.998;4.250;2023-08-31T04:42:53;12.73;;;8.10;;
13592;SDS011;6867;50.998;4.250;2023-08-31T04:45:20;14.87;;;8.07;;
13592;SDS011;6867;50.998;4.250;2023-08-31T04:47:47;15.03;;;7.97;;
13592;SDS011;6867;50.998;4.250;2023-08-31T04:50:16;15.93;;;8.70;;
13592;SDS011;6867;50.998;4.250;2023-08-31T04:52:42;14.20;;;8.47;;
13592;SDS011;6867;50.998;4.250;2023-08-31T04:55:08;11.67;;;8.27;;
13592;SDS011;6867;50.998;4.250;2023-08-31T04:57:38;12.27;;;7.87;;
13592;SDS011;6867;50.998;4.250;2023-08-31T05:00:05;17.10;;;8.20;;
13592;SDS011;6867;50.998;4.250;2023-08-31T05:02:34;12.03;;;7.97;;
13592;SDS011;6867;50.998;4.250;2023-08-31T05:05:00;13.37;;;7.80;;
13592;SDS011;6867;50.998;4.250;2023-08-31T05:07:29;15.23;;;6.83;;
13592;SDS011;6867;50.998;4.250;2023-08-31T05:09:55;9.57;;;6.93;;
13592;SDS011;6867;50.998;4.250;2023-08-31T05:12:22;10.80;;;6.67;;
13592;SDS011;6867;50.998;4.250;2023-08-31T05:14:49;9.27;;;6.30;;
13592;SDS011;6867;50.998;4.250;2023-08-31T05:17:15;10.67;;;6.77;;
13592;SDS011;6867;50.998;4.250;2023-08-31T05:19:42;11.60;;;6.67;;
13592;SDS011;6867;50.998;4.250;2023-08-31T05:22:09;11.70;;;6.57;;
13592;SDS011;6867;50.998;4.250;2023-08-31T05:24:37;10.53;;;6.60;;
13592;SDS011;6867;50.998;4.250;2023-08-31T05:27:04;14.50;;;6.50;;
13592;SDS011;6867;50.998;4.250;2023-08-31T05:29:30;9.33;;;6.30;;
13592;SDS011;6867;50.998;4.250;2023-08-31T05:31:57;12.80;;;6.50;;
13592;SDS011;6867;50.998;4.250;2023-08-31T05:34:24;12.13;;;6.50;;
13592;SDS011;6867;50.998;4.250;2023-08-31T05:36:51;12.57;;;6.20;;
13592;SDS011;6867;50.998;4.250;2023-08-31T05:39:18;15.27;;;7.10;;
13592;SDS011;6867;50.998;4.250;2023-08-31T05:41:46;12.30;;;6.17;;
13592;SDS011;6867;50.998;4.250;2023-08-31T05:44:13;9.63;;;5.93;;
13592;SDS011;6867;50.998;4.250;2023-08-31T05:46:39;13.87;;;6.40;;
13592;SDS011;6867;50.998;4.250;2023-08-31T05:49:06;15.40;;;6.20;;
13592;SDS011;6867;50.998;4.250;2023-08-31T05:51:33;13.77;;;6.07;;
13592;SDS011;6867;50.998;4.250;2023-08-31T05:54:00;12.03;;;6.33;;
13592;SDS011;6867;50.998;4.250;2023-08-31T05:56:28;12.13;;;6.00;;
13592;SDS011;6867;50.998;4.250;2023-08-31T05:58:56;7.53;;;5.60;;
13592;SDS011;6867;50.998;4.250;2023-08-31T06:01:22;14.90;;;6.20;;
13592;SDS011;6867;50.998;4.250;2023-08-31T06:03:49;10.57;;;5.60;;
13592;SDS011;6867;50.998;4.250;2023-08-31T06:06:16;9.30;;;5.57;;
13592;SDS011;6867;50.998;4.250;2023-08-31T06:08:42;10.63;;;5.77;;
13592;SDS011;6867;50.998;4.250;2023-08-31T06:11:09;13.30;;;6.37;;
13592;SDS011;6867;50.998;4.250;2023-08-31T06:13:37;10.07;;;6.00;;
13592;SDS011;6867;50.998;4.250;2023-08-31T06:16:05;13.07;;;6.27;;
13592;SDS011;6867;50.998;4.250;2023-08-31T06:18:32;10.40;;;6.03;;
13592;SDS011;6867;50.998;4.250;2023-08-31T06:20:59;20.97;;;6.50;;
13592;SDS011;6867;50.998;4.250;2023-08-31T06:23:25;11.17;;;5.87;;
13592;SDS011;6867;50.998;4.250;2023-08-31T06:25:52;15.40;;;5.87;;
13592;SDS011;6867;50.998;4.250;2023-08-31T06:28:18;13.23;;;6.17;;
13592;SDS011;6867;50.998;4.250;2023-08-31T06:30:45;13.67;;;5.67;;
13592;SDS011;6867;50.998;4.250;2023-08-31T06:33:14;16.17;;;5.90;;
13592;SDS011;6867;50.998;4.250;2023-08-31T06:35:42;10.50;;;5.70;;
13592;SDS011;6867;50.998;4.250;2023-08-31T06:38:10;13.67;;;5.93;;
13592;SDS011;6867;50.998;4.250;2023-08-31T06:40:37;11.67;;;5.77;;
13592;SDS011;6867;50.998;4.250;2023-08-31T06:43:03;12.03;;;5.80;;
13592;SDS011;6867;50.998;4.250;2023-08-31T06:45:30;11.87;;;5.90;;
13592;SDS011;6867;50.998;4.250;2023-08-31T06:47:57;15.88;;;6.03;;
13592;SDS011;6867;50.998;4.250;2023-08-31T06:50:25;12.83;;;6.10;;
13592;SDS011;6867;50.998;4.250;2023-08-31T06:52:51;13.20;;;6.27;;
13592;SDS011;6867;50.998;4.250;2023-08-31T06:55:18;10.00;;;5.33;;
13592;SDS011;6867;50.998;4.250;2023-08-31T06:57:45;11.93;;;5.63;;
13592;SDS011;6867;50.998;4.250;2023-08-31T07:00:11;15.90;;;5.75;;
13592;SDS011;6867;50.998;4.250;2023-08-31T07:02:39;11.20;;;5.88;;
13592;SDS011;6867;50.998;4.250;2023-08-31T07:05:07;13.35;;;5.80;;
13592;SDS011;6867;50.998;4.250;2023-08-31T07:07:35;9.57;;;5.95;;
13592;SDS011;6867;50.998;4.250;2023-08-31T07:10:02;13.68;;;5.72;;
13592;SDS011;6867;50.998;4.250;2023-08-31T07:12:30;14.07;;;6.25;;
13592;SDS011;6867;50.998;4.250;2023-08-31T07:14:57;14.00;;;6.18;;
13592;SDS011;6867;50.998;4.250;2023-08-31T07:17:24;12.48;;;5.65;;
13592;SDS011;6867;50.998;4.250;2023-08-31T07:19:50;13.05;;;6.15;;
13592;SDS011;6867;50.998;4.250;2023-08-31T07:22:17;12.63;;;5.75;;
13592;SDS011;6867;50.998;4.250;2023-08-31T07:24:45;12.90;;;6.45;;
13592;SDS011;6867;50.998;4.250;2023-08-31T07:27:12;12.98;;;6.60;;
13592;SDS011;6867;50.998;4.250;2023-08-31T07:29:38;11.95;;;5.55;;
13592;SDS011;6867;50.998;4.250;2023-08-31T07:32:05;12.20;;;6.10;;
13592;SDS011;6867;50.998;4.250;2023-08-31T07:34:33;13.07;;;6.25;;
13592;SDS011;6867;50.998;4.250;2023-08-31T07:37:00;17.25;;;6.88;;
13592;SDS011;6867;50.998;4.250;2023-08-31T07:39:28;18.83;;;6.65;;
13592;SDS011;6867;50.998;4.250;2023-08-31T07:41:56;14.55;;;7.07;;
13592;SDS011;6867;50.998;4.250;2023-08-31T07:44:24;18.45;;;8.10;;
13592;SDS011;6867;50.998;4.250;2023-08-31T07:46:51;10.57;;;5.80;;
13592;SDS011;6867;50.998;4.250;2023-08-31T07:49:17;12.73;;;6.60;;
13592;SDS011;6867;50.998;4.250;2023-08-31T07:51:44;20.30;;;7.43;;
13592;SDS011;6867;50.998;4.250;2023-08-31T07:54:11;16.60;;;6.93;;
13592;SDS011;6867;50.998;4.250;2023-08-31T07:56:45;23.48;;;7.00;;
13592;SDS011;6867;50.998;4.250;2023-08-31T07:59:13;13.55;;;7.50;;
13592;SDS011;6867;50.998;4.250;2023-08-31T08:01:40;12.60;;;7.93;;
13592;SDS011;6867;50.998;4.250;2023-08-31T08:04:07;18.15;;;7.15;;
13592;SDS011;6867;50.998;4.250;2023-08-31T08:06:33;17.08;;;7.22;;
13592;SDS011;6867;50.998;4.250;2023-08-31T08:09:00;12.75;;;7.28;;
13592;SDS011;6867;50.998;4.250;2023-08-31T08:11:27;13.98;;;6.88;;
13592;SDS011;6867;50.998;4.250;2023-08-31T08:13:54;17.00;;;7.63;;
13592;SDS011;6867;50.998;4.250;2023-08-31T08:16:22;18.63;;;7.57;;
13592;SDS011;6867;50.998;4.250;2023-08-31T08:18:49;18.83;;;7.63;;
13592;SDS011;6867;50.998;4.250;2023-08-31T08:21:16;12.90;;;7.63;;
13592;SDS011;6867;50.998;4.250;2023-08-31T08:23:42;18.52;;;7.75;;
13592;SDS011;6867;50.998;4.250;2023-08-31T08:26:09;15.15;;;8.00;;
13592;SDS011;6867;50.998;4.250;2023-08-31T08:28:36;13.65;;;7.20;;
13592;SDS011;6867;50.998;4.250;2023-08-31T08:31:02;14.32;;;6.40;;
13592;SDS011;6867;50.998;4.250;2023-08-31T08:33:30;14.57;;;7.45;;
13592;SDS011;6867;50.998;4.250;2023-08-31T08:35:57;13.27;;;5.78;;
13592;SDS011;6867;50.998;4.250;2023-08-31T08:38:24;11.25;;;6.57;;
13592;SDS011;6867;50.998;4.250;2023-08-31T08:40:51;13.88;;;7.07;;
13592;SDS011;6867;50.998;4.250;2023-08-31T08:43:19;11.82;;;6.25;;
13592;SDS011;6867;50.998;4.250;2023-08-31T08:45:51;11.82;;;6.25;;
13592;SDS011;6867;50.998;4.250;2023-08-31T08:48:18;13.38;;;5.78;;
13592;SDS011;6867;50.998;4.250;2023-08-31T08:50:48;10.07;;;5.70;;
13592;SDS011;6867;50.998;4.250;2023-08-31T08:53:15;13.57;;;6.60;;
13592;SDS011;6867;50.998;4.250;2023-08-31T08:55:42;11.85;;;6.25;;
13592;SDS011;6867;50.998;4.250;2023-08-31T08:58:09;10.00;;;5.90;;
13592;SDS011;6867;50.998;4.250;2023-08-31T09:00:36;11.00;;;5.85;;
13592;SDS011;6867;50.998;4.250;2023-08-31T09:03:03;11.35;;;5.90;;
13592;SDS011;6867;50.998;4.250;2023-08-31T09:05:31;9.13;;;6.22;;
13592;SDS011;6867;50.998;4.250;2023-08-31T09:08:02;11.27;;;5.97;;
13592;SDS011;6867;50.998;4.250;2023-08-31T09:10:34;13.80;;;5.72;;
13592;SDS011;6867;50.998;4.250;2023-08-31T09:13:04;12.63;;;6.10;;
13592;SDS011;6867;50.998;4.250;2023-08-31T09:15:36;10.00;;;5.35;;
13592;SDS011;6867;50.998;4.250;2023-08-31T09:18:05;10.75;;;5.80;;
13592;SDS011;6867;50.998;4.250;2023-08-31T09:20:31;9.55;;;5.07;;
13592;SDS011;6867;50.998;4.250;2023-08-31T09:23:09;8.63;;;5.88;;
13592;SDS011;6867;50.998;4.250;2023-08-31T09:25:38;10.02;;;5.60;;
13592;SDS011;6867;50.998;4.250;2023-08-31T09:28:07;11.18;;;6.07;;
13592;SDS011;6867;50.998;4.250;2023-08-31T09:30:34;11.57;;;5.60;;
13592;SDS011;6867;50.998;4.250;2023-08-31T09:33:02;6.88;;;4.63;;
13592;SDS011;6867;50.998;4.250;2023-08-31T09:35:30;11.18;;;5.63;;
13592;SDS011;6867;50.998;4.250;2023-08-31T09:37:57;8.77;;;4.97;;
13592;SDS011;6867;50.998;4.250;2023-08-31T09:40:25;7.85;;;4.72;;
13592;SDS011;6867;50.998;4.250;2023-08-31T09:42:52;9.88;;;5.22;;
13592;SDS011;6867;50.998;4.250;2023-08-31T09:45:23;8.57;;;4.57;;
13592;SDS011;6867;50.998;4.250;2023-08-31T09:47:56;12.25;;;5.30;;
13592;SDS011;6867;50.998;4.250;2023-08-31T09:50:24;6.78;;;4.90;;
13592;SDS011;6867;50.998;4.250;2023-08-31T09:52:53;7.47;;;4.55;;
13592;SDS011;6867;50.998;4.250;2023-08-31T09:55:22;9.25;;;4.30;;
13592;SDS011;6867;50.998;4.250;2023-08-31T09:57:54;7.45;;;4.43;;
13592;SDS011;6867;50.998;4.250;2023-08-31T10:00:23;7.15;;;4.50;;
13592;SDS011;6867;50.998;4.250;2023-08-31T10:02:50;9.55;;;4.00;;
13592;SDS011;6867;50.998;4.250;2023-08-31T10:05:18;8.68;;;4.03;;
13592;SDS011;6867;50.998;4.250;2023-08-31T10:07:45;6.85;;;3.42;;
13592;SDS011;6867;50.998;4.250;2023-08-31T10:10:13;12.40;;;3.80;;
13592;SDS011;6867;50.998;4.250;2023-08-31T10:12:42;6.85;;;3.35;;
13592;SDS011;6867;50.998;4.250;2023-08-31T10:15:10;6.47;;;2.88;;
13592;SDS011;6867;50.998;4.250;2023-08-31T10:17:37;8.05;;;3.38;;
13592;SDS011;6867;50.998;4.250;2023-08-31T10:20:06;5.45;;;2.70;;
13592;SDS011;6867;50.998;4.250;2023-08-31T10:22:34;7.57;;;3.60;;
13592;SDS011;6867;50.998;4.250;2023-08-31T10:25:01;9.85;;;3.70;;
13592;SDS011;6867;50.998;4.250;2023-08-31T10:27:35;8.15;;;3.40;;
13592;SDS011;6867;50.998;4.250;2023-08-31T10:30:14;5.45;;;2.67;;
13592;SDS011;6867;50.998;4.250;2023-08-31T10:33:03;5.85;;;2.80;;
13592;SDS011;6867;50.998;4.250;2023-08-31T10:35:48;5.75;;;3.20;;
13592;SDS011;6867;50.998;4.250;2023-08-31T10:38:16;5.85;;;2.80;;
13592;SDS011;6867;50.998;4.250;2023-08-31T10:40:55;8.63;;;3.00;;
13592;SDS011;6867;50.998;4.250;2023-08-31T10:43:42;5.78;;;3.13;;
13592;SDS011;6867;50.998;4.250;2023-08-31T10:49:13;5.93;;;3.25;;
13592;SDS011;6867;50.998;4.250;2023-08-31T10:51:40;4.97;;;2.67;;
13592;SDS011;6867;50.998;4.250;2023-08-31T10:54:09;8.25;;;2.88;;
13592;SDS011;6867;50.998;4.250;2023-08-31T10:59:42;4.55;;;2.53;;
13592;SDS011;6867;50.998;4.250;2023-08-31T11:02:12;5.97;;;2.28;;
13592;SDS011;6867;50.998;4.250;2023-08-31T11:04:55;4.57;;;2.60;;
13592;SDS011;6867;50.998;4.250;2023-08-31T11:07:26;3.17;;;2.33;;
13592;SDS011;6867;50.998;4.250;2023-08-31T11:10:05;5.03;;;2.38;;
13592;SDS011;6867;50.998;4.250;2023-08-31T11:12:36;9.07;;;2.83;;
13592;SDS011;6867;50.998;4.250;2023-08-31T11:15:03;4.40;;;2.30;;
13592;SDS011;6867;50.998;4.250;2023-08-31T11:17:32;6.45;;;2.92;;
13592;SDS011;6867;50.998;4.250;2023-08-31T11:20:00;5.70;;;3.20;;
13592;SDS011;6867;50.998;4.250;2023-08-31T11:22:30;6.03;;;3.30;;
13592;SDS011;6867;50.998;4.250;2023-08-31T11:24:57;6.63;;;2.85;;
13592;SDS011;6867;50.998;4.250;2023-08-31T11:27:24;6.63;;;3.25;;
13592;SDS011;6867;50.998;4.250;2023-08-31T11:29:51;6.30;;;3.47;;
13592;SDS011;6867;50.998;4.250;2023-08-31T11:32:18;5.82;;;3.45;;
13592;SDS011;6867;50.998;4.250;2023-08-31T11:34:46;6.07;;;3.53;;
13592;SDS011;6867;50.998;4.250;2023-08-31T11:37:13;4.38;;;3.35;;
13592;SDS011;6867;50.998;4.250;2023-08-31T11:39:42;7.57;;;3.03;;
13592;SDS011;6867;50.998;4.250;2023-08-31T11:42:15;6.53;;;3.35;;
13592;SDS011;6867;50.998;4.250;2023-08-31T11:44:43;8.82;;;4.00;;
13592;SDS011;6867;50.998;4.250;2023-08-31T11:47:10;6.72;;;3.20;;
13592;SDS011;6867;50.998;4.250;2023-08-31T11:49:38;3.88;;;2.95;;
13592;SDS011;6867;50.998;4.250;2023-08-31T11:52:09;3.63;;;2.65;;
13592;SDS011;6867;50.998;4.250;2023-08-31T11:54:36;3.60;;;2.90;;
13592;SDS011;6867;50.998;4.250;2023-08-31T11:57:06;4.18;;;2.47;;
13592;SDS011;6867;50.998;4.250;2023-08-31T11:59:34;2.85;;;2.60;;
13592;SDS011;6867;50.998;4.250;2023-08-31T12:02:01;4.40;;;2.42;;
13592;SDS011;6867;50.998;4.250;2023-08-31T12:04:28;4.78;;;2.65;;
13592;SDS011;6867;50.998;4.250;2023-08-31T12:07:00;5.65;;;2.42;;
13592;SDS011;6867;50.998;4.250;2023-08-31T12:09:30;10.30;;;2.90;;
13592;SDS011;6867;50.998;4.250;2023-08-31T12:11:57;5.22;;;2.78;;
13592;SDS011;6867;50.998;4.250;2023-08-31T12:14:25;5.35;;;2.40;;
13592;SDS011;6867;50.998;4.250;2023-08-31T12:16:59;5.15;;;2.45;;
13592;SDS011;6867;50.998;4.250;2023-08-31T12:19:28;6.43;;;2.53;;
13592;SDS011;6867;50.998;4.250;2023-08-31T12:21:55;3.88;;;2.05;;
13592;SDS011;6867;50.998;4.250;2023-08-31T12:24:22;7.40;;;2.38;;
13592;SDS011;6867;50.998;4.250;2023-08-31T12:26:50;6.80;;;2.17;;
13592;SDS011;6867;50.998;4.250;2023-08-31T12:29:18;4.10;;;2.47;;
13592;SDS011;6867;50.998;4.250;2023-08-31T12:31:45;5.88;;;2.78;;
13592;SDS011;6867;50.998;4.250;2023-08-31T12:34:12;7.22;;;2.15;;
13592;SDS011;6867;50.998;4.250;2023-08-31T12:36:39;6.38;;;2.40;;
13592;SDS011;6867;50.998;4.250;2023-08-31T12:39:06;4.75;;;1.90;;
13592;SDS011;6867;50.998;4.250;2023-08-31T12:41:35;5.47;;;2.00;;
13592;SDS011;6867;50.998;4.250;2023-08-31T12:44:03;4.47;;;1.80;;
13592;SDS011;6867;50.998;4.250;2023-08-31T12:46:30;3.88;;;2.05;;
13592;SDS011;6867;50.998;4.250;2023-08-31T12:48:58;6.80;;;1.83;;
13592;SDS011;6867;50.998;4.250;2023-08-31T12:51:26;6.65;;;1.70;;
13592;SDS011;6867;50.998;4.250;2023-08-31T12:53:52;5.57;;;1.73;;
13592;SDS011;6867;50.998;4.250;2023-08-31T12:56:19;5.78;;;1.77;;
13592;SDS011;6867;50.998;4.250;2023-08-31T12:58:48;5.05;;;1.90;;
13592;SDS011;6867;50.998;4.250;2023-08-31T13:01:16;7.72;;;1.83;;
13592;SDS011;6867;50.998;4.250;2023-08-31T13:03:44;3.28;;;1.50;;
13592;SDS011;6867;50.998;4.250;2023-08-31T13:06:10;6.78;;;2.10;;
13592;SDS011;6867;50.998;4.250;2023-08-31T13:08:37;3.33;;;1.92;;
13592;SDS011;6867;50.998;4.250;2023-08-31T13:11:04;4.57;;;1.80;;
13592;SDS011;6867;50.998;4.250;2023-08-31T13:13:32;5.28;;;1.70;;
13592;SDS011;6867;50.998;4.250;2023-08-31T13:15:58;6.45;;;2.08;;
13592;SDS011;6867;50.998;4.250;2023-08-31T13:18:26;4.53;;;1.58;;
13592;SDS011;6867;50.998;4.250;2023-08-31T13:20:53;4.07;;;1.83;;
13592;SDS011;6867;50.998;4.250;2023-08-31T13:23:20;6.63;;;1.50;;
13592;SDS011;6867;50.998;4.250;2023-08-31T13:25:47;4.63;;;1.50;;
13592;SDS011;6867;50.998;4.250;2023-08-31T13:28:15;3.25;;;1.60;;
13592;SDS011;6867;50.998;4.250;2023-08-31T13:30:42;2.78;;;1.70;;
13592;SDS011;6867;50.998;4.250;2023-08-31T13:33:08;4.03;;;1.48;;
13592;SDS011;6867;50.998;4.250;2023-08-31T13:35:36;2.92;;;1.70;;
13592;SDS011;6867;50.998;4.250;2023-08-31T13:38:03;4.80;;;1.50;;
13592;SDS011;6867;50.998;4.250;2023-08-31T13:40:33;3.15;;;1.30;;
13592;SDS011;6867;50.998;4.250;2023-08-31T13:43:01;3.58;;;1.73;;
13592;SDS011;6867;50.998;4.250;2023-08-31T13:45:28;3.35;;;1.70;;
13592;SDS011;6867;50.998;4.250;2023-08-31T13:47:55;2.88;;;1.60;;
13592;SDS011;6867;50.998;4.250;2023-08-31T13:50:22;4.63;;;1.80;;
13592;SDS011;6867;50.998;4.250;2023-08-31T13:52:51;5.75;;;1.75;;
13592;SDS011;6867;50.998;4.250;2023-08-31T13:55:18;3.60;;;1.98;;
13592;SDS011;6867;50.998;4.250;2023-08-31T13:57:44;2.97;;;1.80;;
13592;SDS011;6867;50.998;4.250;2023-08-31T14:00:11;5.03;;;1.60;;
13592;SDS011;6867;50.998;4.250;2023-08-31T14:02:39;3.58;;;1.90;;
13592;SDS011;6867;50.998;4.250;2023-08-31T14:05:06;5.18;;;2.05;;
13592;SDS011;6867;50.998;4.250;2023-08-31T14:07:35;3.63;;;1.67;;
13592;SDS011;6867;50.998;4.250;2023-08-31T14:10:03;3.85;;;1.60;;
13592;SDS011;6867;50.998;4.250;2023-08-31T14:12:31;7.03;;;2.53;;
13592;SDS011;6867;50.998;4.250;2023-08-31T14:14:58;3.35;;;1.80;;
13592;SDS011;6867;50.998;4.250;2023-08-31T14:17:26;8.10;;;2.15;;
13592;SDS011;6867;50.998;4.250;2023-08-31T14:19:52;3.75;;;1.88;;
13592;SDS011;6867;50.998;4.250;2023-08-31T14:22:19;7.50;;;2.38;;
13592;SDS011;6867;50.998;4.250;2023-08-31T14:24:46;3.60;;;1.90;;
13592;SDS011;6867;50.998;4.250;2023-08-31T14:27:14;6.28;;;1.92;;
13592;SDS011;6867;50.998;4.250;2023-08-31T14:29:40;7.03;;;2.33;;
13592;SDS011;6867;50.998;4.250;2023-08-31T14:32:07;4.32;;;1.83;;
13592;SDS011;6867;50.998;4.250;2023-08-31T14:34:34;3.65;;;2.28;;
13592;SDS011;6867;50.998;4.250;2023-08-31T14:37:00;4.35;;;2.00;;
13592;SDS011;6867;50.998;4.250;2023-08-31T14:39:27;6.63;;;1.95;;
13592;SDS011;6867;50.998;4.250;2023-08-31T14:41:55;4.57;;;1.77;;
13592;SDS011;6867;50.998;4.250;2023-08-31T14:44:24;5.65;;;2.20;;
13592;SDS011;6867;50.998;4.250;2023-08-31T14:46:51;5.72;;;2.42;;
13592;SDS011;6867;50.998;4.250;2023-08-31T14:49:18;4.28;;;2.03;;
13592;SDS011;6867;50.998;4.250;2023-08-31T14:51:45;7.05;;;2.38;;
13592;SDS011;6867;50.998;4.250;2023-08-31T14:54:11;6.25;;;2.22;;
13592;SDS011;6867;50.998;4.250;2023-08-31T14:56:38;6.47;;;2.33;;
13592;SDS011;6867;50.998;4.250;2023-08-31T14:59:04;5.47;;;2.17;;
13592;SDS011;6867;50.998;4.250;2023-08-31T15:01:32;7.50;;;2.67;;
13592;SDS011;6867;50.998;4.250;2023-08-31T15:03:59;8.15;;;2.38;;
13592;SDS011;6867;50.998;4.250;2023-08-31T15:06:26;6.65;;;2.78;;